Time;durP1;ratioP1;P1;durP2;ratioP2;P2;SDS_P1;SDS_P2;PMS_P1;PMS_P2;Temp;Humidity;BMP_temperature;BMP_pressure;BME280_temperature;BME280_humidity;BME280_pressure;Samples;Min_cycle;Max_cycle;Signal;HPM_P1;HPM_P2
2021/01/11 00:00:36;;;;;;;15.43;12.17;;;-3.20;99.90;;;;;;5030079;28;20437;-74
2021/01/11 00:03:02;;;;;;;18.53;12.57;;;-3.30;99.90;;;;;;5029498;28;20332;-74
2021/01/11 00:05:28;;;;;;;17.30;12.77;;;-3.30;99.90;;;;;;5028034;28;20310;-75
2021/01/11 00:07:53;;;;;;;16.37;12.70;;;-3.30;99.90;;;;;;5028699;28;20462;-77
2021/01/11 00:10:19;;;;;;;16.60;12.43;;;-3.30;99.90;;;;;;5028256;28;20179;-74
2021/01/11 00:12:44;;;;;;;15.00;11.43;;;-3.30;99.90;;;;;;5029042;28;20187;-74
2021/01/11 00:15:12;;;;;;;16.70;11.80;;;-3.30;99.90;;;;;;5028470;28;20179;-75
2021/01/11 00:17:39;;;;;;;15.87;12.70;;;-3.20;99.90;;;;;;5028704;28;20798;-74
2021/01/11 00:20:06;;;;;;;17.43;12.67;;;-3.30;99.90;;;;;;5029059;28;20465;-76
2021/01/11 00:22:33;;;;;;;16.43;12.80;;;-3.30;99.90;;;;;;5022676;28;20510;-76
2021/01/11 00:24:59;;;;;;;15.97;13.13;;;-3.30;99.90;;;;;;5030825;28;20594;-75
2021/01/11 00:27:24;;;;;;;15.47;12.80;;;-3.30;99.90;;;;;;5031135;28;20468;-74
2021/01/11 00:29:50;;;;;;;14.60;12.00;;;-3.40;99.90;;;;;;5028530;28;20210;-76
2021/01/11 00:32:16;;;;;;;15.60;11.37;;;-3.40;99.90;;;;;;5028723;28;20623;-76
2021/01/11 00:34:41;;;;;;;13.23;10.60;;;-3.40;99.90;;;;;;5010799;28;20339;-74
2021/01/11 00:37:07;;;;;;;14.33;11.67;;;-3.40;99.90;;;;;;5028007;28;20244;-75
2021/01/11 00:39:33;;;;;;;12.93;10.90;;;-3.40;99.90;;;;;;5028507;28;20209;-75
2021/01/11 00:41:59;;;;;;;13.67;11.00;;;-3.20;99.90;;;;;;5028263;28;20438;-75
2021/01/11 00:44:26;;;;;;;13.50;10.87;;;-3.20;99.90;;;;;;5028552;28;20247;-75
2021/01/11 00:46:52;;;;;;;15.93;11.67;;;-3.20;99.90;;;;;;5028198;28;20441;-75
2021/01/11 00:49:17;;;;;;;13.47;10.43;;;-3.30;99.90;;;;;;5028395;28;20838;-75
2021/01/11 00:51:43;;;;;;;13.87;10.90;;;-3.40;99.90;;;;;;5029089;28;20183;-74
2021/01/11 00:54:10;;;;;;;16.17;10.00;;;-3.50;99.90;;;;;;5028511;28;20187;-75
2021/01/11 00:56:35;;;;;;;13.07;10.00;;;-3.40;99.90;;;;;;5027274;28;20236;-75
2021/01/11 00:59:01;;;;;;;14.33;9.87;;;-3.50;99.90;;;;;;5028781;28;20450;-76
2021/01/11 01:01:26;;;;;;;17.60;11.20;;;-3.50;99.90;;;;;;5029254;28;20187;-74
2021/01/11 01:03:52;;;;;;;12.40;10.30;;;-3.50;99.90;;;;;;5030900;28;20273;-74
2021/01/11 01:06:18;;;;;;;13.40;10.63;;;-3.40;99.90;;;;;;5027614;28;20187;-74
2021/01/11 01:08:44;;;;;;;15.60;9.90;;;-3.40;99.90;;;;;;5009980;28;20208;-73
2021/01/11 01:11:10;;;;;;;14.83;11.40;;;-3.40;99.90;;;;;;5026449;28;20434;-74
2021/01/11 01:13:36;;;;;;;15.80;10.90;;;-3.50;99.90;;;;;;5028344;28;20179;-74
2021/01/11 01:16:03;;;;;;;14.53;9.97;;;-3.50;99.90;;;;;;5027849;28;21010;-73
2021/01/11 01:18:29;;;;;;;12.87;9.40;;;-3.50;99.90;;;;;;5027656;28;20552;-73
2021/01/11 01:20:55;;;;;;;13.37;10.10;;;-3.60;99.90;;;;;;5027449;28;20998;-73
2021/01/11 01:23:20;;;;;;;19.50;11.47;;;-3.50;99.90;;;;;;5028035;28;20676;-73
2021/01/11 01:25:46;;;;;;;14.30;10.40;;;-3.60;99.90;;;;;;5027817;28;20633;-73
2021/01/11 01:28:12;;;;;;;13.07;10.03;;;-3.60;99.90;;;;;;5027525;28;20577;-75
2021/01/11 01:30:37;;;;;;;13.00;9.90;;;-3.60;99.90;;;;;;5028053;28;20648;-75
2021/01/11 01:33:03;;;;;;;13.60;10.23;;;-3.50;99.90;;;;;;5027507;28;20233;-75
2021/01/11 01:35:32;;;;;;;12.13;9.97;;;-3.50;99.90;;;;;;5009725;28;20248;-73
2021/01/11 01:37:57;;;;;;;13.17;10.10;;;-3.50;99.90;;;;;;5027192;28;20709;-74
2021/01/11 01:40:24;;;;;;;12.63;9.00;;;-3.50;99.90;;;;;;5027037;28;20532;-74
2021/01/11 01:42:51;;;;;;;13.93;10.83;;;-3.60;99.90;;;;;;5027880;28;20199;-74
2021/01/11 01:45:17;;;;;;;13.60;11.30;;;-3.60;99.90;;;;;;5027340;28;20864;-74
2021/01/11 01:47:44;;;;;;;14.13;10.93;;;-3.60;99.90;;;;;;5027276;28;20944;-74
2021/01/11 01:50:10;;;;;;;15.60;10.90;;;-3.60;99.90;;;;;;5027184;28;20430;-74
2021/01/11 01:52:37;;;;;;;12.33;10.77;;;-3.50;99.90;;;;;;5027469;28;20418;-75
2021/01/11 01:55:04;;;;;;;15.50;11.23;;;-3.60;99.90;;;;;;5026813;28;20469;-74
2021/01/11 01:57:30;;;;;;;16.60;11.60;;;-3.60;99.90;;;;;;5026495;28;20475;-73
2021/01/11 01:59:55;;;;;;;14.30;10.60;;;-3.70;99.90;;;;;;5028861;28;20453;-75
2021/01/11 02:02:21;;;;;;;16.90;12.10;;;-3.60;99.90;;;;;;5030784;28;20261;-74
2021/01/11 02:04:47;;;;;;;13.40;10.30;;;-3.70;99.90;;;;;;5027741;28;20461;-72
2021/01/11 02:07:45;;;;;;;16.23;11.40;;;-3.60;99.90;;;;;;5026513;28;20652;-74
2021/01/11 02:10:24;;;;;;;16.03;11.07;;;-3.60;99.90;;;;;;5026685;28;20183;-74
2021/01/11 02:13:00;;;;;;;14.97;11.53;;;-3.70;99.90;;;;;;5023537;28;20476;-74
2021/01/11 02:15:49;;;;;;;14.67;10.90;;;-3.70;99.90;;;;;;5025978;28;20439;-75
2021/01/11 02:18:27;;;;;;;15.70;12.13;;;-3.70;99.90;;;;;;5008593;28;20472;-74
2021/01/11 02:21:08;;;;;;;12.90;10.40;;;-3.80;99.90;;;;;;5026483;28;21016;-74
2021/01/11 02:24:04;;;;;;;13.77;10.30;;;-3.70;99.90;;;;;;5027000;28;20418;-75
2021/01/11 02:26:54;;;;;;;15.30;12.33;;;-3.80;99.90;;;;;;5026825;28;20843;-74
2021/01/11 02:29:53;;;;;;;12.87;11.03;;;-3.80;99.90;;;;;;5026108;28;20468;-74
2021/01/11 02:32:21;;;;;;;18.70;11.40;;;-3.80;99.90;;;;;;5024706;28;20425;-74
2021/01/11 02:34:48;;;;;;;14.20;11.57;;;-3.80;99.90;;;;;;5027009;28;20421;-75
2021/01/11 02:37:15;;;;;;;12.73;10.10;;;-3.80;99.90;;;;;;5025671;28;20437;-74
2021/01/11 02:39:41;;;;;;;13.53;10.90;;;-3.80;99.90;;;;;;5026698;28;20464;-75
2021/01/11 02:42:06;;;;;;;16.73;11.60;;;-3.80;99.90;;;;;;5026104;28;20441;-73
2021/01/11 02:44:32;;;;;;;12.67;9.70;;;-3.80;99.90;;;;;;5026453;28;20206;-74
2021/01/11 02:46:58;;;;;;;13.63;10.63;;;-3.90;99.90;;;;;;5025951;28;20220;-75
2021/01/11 02:49:26;;;;;;;16.47;10.07;;;-3.90;99.90;;;;;;5026391;28;20210;-74
2021/01/11 02:52:21;;;;;;;13.83;9.57;;;-3.90;99.90;;;;;;5026686;28;20193;-74
2021/01/11 02:54:59;;;;;;;10.23;8.60;;;-3.80;99.90;;;;;;5024382;28;20437;-74
2021/01/11 02:57:47;;;;;;;11.97;8.57;;;-3.80;99.90;;;;;;5019628;28;20438;-74
2021/01/11 03:00:14;;;;;;;11.67;8.67;;;-3.70;99.90;;;;;;5025401;28;20492;-75
2021/01/11 03:02:44;;;;;;;10.57;8.50;;;-3.80;99.90;;;;;;5026730;28;20422;-75
2021/01/11 03:05:12;;;;;;;12.13;8.77;;;-3.80;99.90;;;;;;5025481;28;20476;-74
2021/01/11 03:07:37;;;;;;;11.67;8.23;;;-3.60;99.90;;;;;;5007975;28;20430;-75
2021/01/11 03:10:03;;;;;;;12.33;9.90;;;-3.60;99.90;;;;;;5026193;28;20425;-75
2021/01/11 03:12:31;;;;;;;13.33;9.13;;;-3.70;99.90;;;;;;5026969;28;20578;-74
2021/01/11 03:14:56;;;;;;;12.93;9.23;;;-3.70;99.90;;;;;;5026253;28;20809;-71
2021/01/11 03:17:22;;;;;;;14.37;9.30;;;-3.70;99.90;;;;;;5025489;28;20452;-73
2021/01/11 03:19:47;;;;;;;14.00;10.37;;;-3.70;99.90;;;;;;5008839;28;20218;-72
2021/01/11 03:22:13;;;;;;;14.50;9.80;;;-3.80;99.90;;;;;;5029808;28;20191;-73
2021/01/11 03:24:40;;;;;;;14.80;8.60;;;-3.80;99.90;;;;;;5030379;28;20217;-73
2021/01/11 03:27:05;;;;;;;12.77;9.33;;;-3.80;99.90;;;;;;5029609;28;20211;-74
2021/01/11 03:29:31;;;;;;;13.30;9.03;;;-3.80;99.90;;;;;;5029667;28;20465;-74
2021/01/11 03:31:57;;;;;;;15.27;9.93;;;-3.80;99.90;;;;;;5030157;28;20194;-74
2021/01/11 03:34:22;;;;;;;12.97;10.20;;;-3.80;99.90;;;;;;5029982;28;20655;-74
2021/01/11 03:36:48;;;;;;;11.40;9.90;;;-3.80;99.90;;;;;;5029317;28;20191;-74
2021/01/11 03:39:14;;;;;;;16.37;13.80;;;-3.80;99.90;;;;;;5029340;28;20647;-76
2021/01/11 03:41:42;;;;;;;19.93;15.10;;;-3.70;99.90;;;;;;5029714;28;20237;-74
2021/01/11 03:44:08;;;;;;;19.97;12.77;;;-3.50;99.90;;;;;;5030027;28;20251;-73
2021/01/11 03:46:35;;;;;;;13.70;10.70;;;-3.40;99.90;;;;;;5029477;28;20978;-72
2021/01/11 03:49:01;;;;;;;12.87;10.10;;;-3.50;99.90;;;;;;5028725;28;20553;-74
2021/01/11 03:51:26;;;;;;;12.63;9.50;;;-3.50;99.90;;;;;;5011762;28;20516;-75
2021/01/11 03:53:52;;;;;;;13.67;11.20;;;-3.50;99.90;;;;;;5028962;28;20489;-75
2021/01/11 03:56:18;;;;;;;13.13;11.57;;;-3.50;99.90;;;;;;5029162;28;20667;-75
2021/01/11 03:58:44;;;;;;;16.17;11.83;;;-3.50;99.90;;;;;;5029127;28;20540;-74
2021/01/11 04:01:09;;;;;;;12.47;10.00;;;-3.50;99.90;;;;;;5029738;28;20187;-76
2021/01/11 04:03:35;;;;;;;14.07;10.70;;;-3.40;99.90;;;;;;5029362;28;20437;-76
2021/01/11 04:06:01;;;;;;;14.13;9.77;;;-3.40;99.90;;;;;;5029657;28;20591;-74
2021/01/11 04:08:27;;;;;;;15.83;11.13;;;-3.50;99.90;;;;;;5029602;28;20648;-73
2021/01/11 04:10:53;;;;;;;16.50;11.00;;;-3.60;99.90;;;;;;5029267;28;20866;-74
2021/01/11 04:13:19;;;;;;;14.73;11.33;;;-3.70;99.90;;;;;;5025329;28;20465;-76
2021/01/11 04:15:45;;;;;;;20.20;12.70;;;-3.70;99.90;;;;;;5029199;28;21002;-73
2021/01/11 04:18:11;;;;;;;13.10;11.17;;;-3.70;99.90;;;;;;5029231;28;20471;-75
2021/01/11 04:20:37;;;;;;;16.23;12.03;;;-3.70;99.90;;;;;;5028929;28;20448;-74
2021/01/11 04:23:04;;;;;;;17.63;12.30;;;-3.70;99.90;;;;;;5028863;28;20418;-75
2021/01/11 04:25:30;;;;;;;16.47;12.33;;;-3.70;99.90;;;;;;5028191;28;20251;-75
2021/01/11 04:27:56;;;;;;;16.67;13.37;;;-3.70;99.90;;;;;;5029168;28;20482;-75
2021/01/11 04:30:22;;;;;;;15.83;11.47;;;-3.70;99.90;;;;;;5028322;28;20185;-75
2021/01/11 04:32:48;;;;;;;20.90;11.90;;;-3.80;99.90;;;;;;5029287;28;20688;-74
2021/01/11 04:35:15;;;;;;;15.43;10.80;;;-3.70;99.90;;;;;;5028845;28;20435;-73
2021/01/11 04:37:44;;;;;;;15.33;11.70;;;-3.70;99.90;;;;;;5028762;28;20199;-75
2021/01/11 04:40:11;;;;;;;15.43;12.80;;;-3.70;99.90;;;;;;5028658;28;20429;-75
2021/01/11 04:43:10;;;;;;;15.73;11.97;;;-3.70;99.90;;;;;;5029033;28;20433;-74
2021/01/11 04:45:36;;;;;;;19.23;12.27;;;-3.60;99.90;;;;;;5031582;28;20536;-77
2021/01/11 04:48:02;;;;;;;15.47;11.97;;;-3.60;99.90;;;;;;5035742;28;20477;-76
2021/01/11 04:50:29;;;;;;;14.83;11.90;;;-3.60;99.90;;;;;;5032143;28;20566;-76
2021/01/11 04:52:55;;;;;;;16.60;12.30;;;-3.70;99.90;;;;;;5037853;28;20430;-77
2021/01/11 04:55:21;;;;;;;13.20;11.30;;;-3.60;99.90;;;;;;5038325;28;20434;-75
2021/01/11 04:57:55;;;;;;;17.80;12.53;;;-3.60;99.90;;;;;;5035507;28;20808;-75
2021/01/11 05:00:26;;;;;;;19.53;14.30;;;-3.50;99.90;;;;;;5032367;28;20859;-75
2021/01/11 05:02:59;;;;;;;18.70;13.60;;;-3.60;99.90;;;;;;5028729;28;20426;-74
2021/01/11 05:05:26;;;;;;;15.90;12.77;;;-3.60;99.90;;;;;;5025884;28;20466;-74
2021/01/11 05:07:52;;;;;;;17.40;13.63;;;-3.60;99.90;;;;;;5028292;28;20430;-74
2021/01/11 05:10:25;;;;;;;14.00;11.67;;;-3.50;99.90;;;;;;5028902;28;20441;-74
2021/01/11 05:13:08;;;;;;;16.67;13.20;;;-3.60;99.90;;;;;;5025561;28;20188;-74
2021/01/11 05:15:41;;;;;;;16.23;11.50;;;-3.60;99.90;;;;;;5024160;28;20792;-74
2021/01/11 05:18:17;;;;;;;16.13;11.03;;;-3.60;99.90;;;;;;5030550;28;20463;-76
2021/01/11 05:20:43;;;;;;;15.37;11.43;;;-3.60;99.90;;;;;;5024120;28;20448;-74
2021/01/11 05:23:10;;;;;;;15.37;13.07;;;-3.50;99.90;;;;;;5029151;28;20438;-75
2021/01/11 05:25:40;;;;;;;14.77;11.03;;;-3.50;99.90;;;;;;5028355;28;20569;-74
2021/01/11 05:28:16;;;;;;;14.93;10.87;;;-3.50;99.90;;;;;;5027993;28;20548;-75
2021/01/11 05:30:49;;;;;;;20.00;13.10;;;-3.50;99.90;;;;;;5029535;28;20475;-74
2021/01/11 05:33:25;;;;;;;16.70;10.20;;;-3.50;99.90;;;;;;5028468;28;20529;-76
2021/01/11 05:36:08;;;;;;;14.20;11.47;;;-3.50;99.90;;;;;;5029840;28;20436;-76
2021/01/11 05:38:39;;;;;;;17.70;12.87;;;-3.60;99.90;;;;;;5004832;28;20450;-75
2021/01/11 05:41:24;;;;;;;18.57;11.43;;;-3.50;99.90;;;;;;5012624;28;20432;-76
2021/01/11 05:44:12;;;;;;;14.70;11.53;;;-3.50;99.90;;;;;;5033610;28;20431;-76
2021/01/11 05:46:39;;;;;;;13.80;11.10;;;-3.60;99.90;;;;;;5026636;28;20437;-74
2021/01/11 05:49:10;;;;;;;15.63;11.77;;;-3.60;99.90;;;;;;5028303;28;20670;-77
2021/01/11 05:51:37;;;;;;;13.13;10.40;;;-3.60;99.90;;;;;;5028108;28;20436;-74
2021/01/11 05:54:04;;;;;;;15.30;11.43;;;-3.60;99.90;;;;;;5030560;28;20442;-75
2021/01/11 05:56:56;;;;;;;15.30;12.03;;;-3.60;99.90;;;;;;5029875;28;20420;-75
2021/01/11 05:59:22;;;;;;;15.60;10.57;;;-3.60;99.90;;;;;;5020937;28;20480;-72
2021/01/11 06:01:49;;;;;;;13.83;10.67;;;-3.60;99.90;;;;;;5009745;28;20963;-73
2021/01/11 06:04:15;;;;;;;17.37;11.20;;;-3.60;99.90;;;;;;5026934;28;20457;-74
2021/01/11 06:06:40;;;;;;;15.30;12.33;;;-3.50;99.90;;;;;;5027175;28;20424;-75
2021/01/11 06:09:07;;;;;;;16.70;11.70;;;-3.50;99.90;;;;;;5028404;28;20457;-74
2021/01/11 06:11:36;;;;;;;13.90;10.77;;;-3.50;99.90;;;;;;5028845;28;20183;-74
2021/01/11 06:14:02;;;;;;;11.33;10.17;;;-3.60;99.90;;;;;;5026964;28;20509;-74
2021/01/11 06:16:29;;;;;;;15.67;12.03;;;-3.50;99.90;;;;;;5026302;28;20430;-74
2021/01/11 06:18:55;;;;;;;14.23;10.30;;;-3.50;99.90;;;;;;5023707;28;20465;-74
2021/01/11 06:21:22;;;;;;;14.90;12.13;;;-3.40;99.90;;;;;;5027347;28;20430;-76
2021/01/11 06:23:48;;;;;;;14.40;11.73;;;-3.50;99.90;;;;;;5026089;28;20801;-75
2021/01/11 06:26:30;;;;;;;16.17;13.10;;;-3.60;99.90;;;;;;5026994;28;21020;-73
2021/01/11 06:28:57;;;;;;;13.73;11.57;;;-3.60;99.90;;;;;;5026630;28;20969;-74
2021/01/11 06:31:28;;;;;;;14.97;11.30;;;-3.60;99.90;;;;;;5026570;28;20439;-74
2021/01/11 06:33:54;;;;;;;16.37;11.23;;;-3.70;99.90;;;;;;5026131;28;20480;-75
2021/01/11 06:36:21;;;;;;;14.60;10.80;;;-3.60;99.90;;;;;;5025915;28;20476;-75
2021/01/11 06:38:48;;;;;;;12.00;10.13;;;-3.50;99.90;;;;;;5026820;28;20488;-75
2021/01/11 06:41:16;;;;;;;16.07;10.20;;;-3.50;99.90;;;;;;5026947;28;20497;-74
2021/01/11 06:43:45;;;;;;;14.00;11.13;;;-3.60;99.90;;;;;;5025566;28;20841;-74
2021/01/11 06:46:42;;;;;;;16.10;11.40;;;-3.70;99.90;;;;;;5026106;28;20436;-74
2021/01/11 06:49:30;;;;;;;15.20;12.50;;;-3.70;99.90;;;;;;5027732;28;20465;-76
2021/01/11 06:52:33;;;;;;;15.20;11.63;;;-3.60;99.90;;;;;;5024622;28;20428;-74
2021/01/11 06:55:12;;;;;;;15.73;12.70;;;-3.60;99.90;;;;;;4949452;28;20807;-75
2021/01/11 06:57:38;;;;;;;17.57;12.30;;;-3.70;99.90;;;;;;4948013;28;20562;-75
2021/01/11 07:00:09;;;;;;;14.53;11.13;;;-3.80;99.90;;;;;;4950953;28;20473;-74
2021/01/11 07:02:41;;;;;;;16.40;11.90;;;-3.80;99.90;;;;;;4957410;28;20440;-74
2021/01/11 07:05:27;;;;;;;16.23;10.70;;;-3.80;99.90;;;;;;4953517;28;20867;-74
2021/01/11 07:08:01;;;;;;;15.07;9.63;;;-3.80;99.90;;;;;;4953069;28;20439;-74
2021/01/11 07:10:27;;;;;;;12.67;10.93;;;-3.90;99.90;;;;;;4949181;28;20947;-75
2021/01/11 07:13:19;;;;;;;13.00;9.87;;;-4.00;99.90;;;;;;4951197;28;20433;-75
2021/01/11 07:15:50;;;;;;;14.60;10.33;;;-4.00;99.90;;;;;;4955504;28;20611;-74
2021/01/11 07:18:37;;;;;;;14.37;10.10;;;-3.80;99.90;;;;;;4952227;28;20594;-73
2021/01/11 07:21:12;;;;;;;15.30;10.67;;;-3.70;99.90;;;;;;4953258;28;20454;-75
2021/01/11 07:23:38;;;;;;;15.37;12.00;;;-3.80;99.90;;;;;;4935745;28;21248;-74
2021/01/11 07:26:09;;;;;;;15.37;11.60;;;-3.70;99.90;;;;;;4950860;28;20543;-74
2021/01/11 07:28:35;;;;;;;20.87;12.93;;;-3.70;99.90;;;;;;4932486;28;20996;-75
2021/01/11 07:31:00;;;;;;;17.37;12.83;;;-3.80;99.90;;;;;;4986024;28;20426;-73
2021/01/11 07:33:26;;;;;;;15.73;11.87;;;-3.70;99.90;;;;;;5025559;28;20183;-74
2021/01/11 07:35:52;;;;;;;15.80;11.37;;;-3.70;99.90;;;;;;5026309;28;20541;-73
2021/01/11 07:38:20;;;;;;;16.83;12.17;;;-3.70;99.90;;;;;;5025736;28;20199;-74
2021/01/11 07:40:56;;;;;;;19.73;13.90;;;-3.80;99.90;;;;;;5026519;28;20183;-75
2021/01/11 07:43:25;;;;;;;18.43;13.00;;;-3.70;99.90;;;;;;5027062;28;20922;-74
2021/01/11 07:46:01;;;;;;;16.20;11.93;;;-3.70;99.90;;;;;;5011482;28;20480;-75
2021/01/11 07:48:27;;;;;;;16.40;12.17;;;-3.70;99.90;;;;;;5018992;28;20425;-74
2021/01/11 07:51:05;;;;;;;17.23;13.30;;;-3.70;99.90;;;;;;5025916;28;20413;-76
2021/01/11 07:53:36;;;;;;;14.23;12.00;;;-3.60;99.90;;;;;;5021709;28;20479;-74
2021/01/11 07:56:08;;;;;;;19.23;13.50;;;-3.60;99.90;;;;;;5025668;28;20876;-72
2021/01/11 07:58:35;;;;;;;19.40;12.73;;;-3.60;99.90;;;;;;5020250;28;20441;-75
2021/01/11 08:01:03;;;;;;;16.43;12.30;;;-3.60;99.90;;;;;;5025914;28;20429;-76
2021/01/11 08:03:28;;;;;;;20.70;13.20;;;-3.60;99.90;;;;;;5026210;28;20426;-75
2021/01/11 08:06:01;;;;;;;19.40;13.90;;;-3.50;99.90;;;;;;5026989;28;20470;-74
2021/01/11 08:08:29;;;;;;;20.03;14.63;;;-3.50;99.90;;;;;;5030308;28;20198;-76
2021/01/11 08:10:58;;;;;;;25.40;16.60;;;-3.50;99.90;;;;;;5029724;28;20469;-76
2021/01/11 08:13:24;;;;;;;20.47;14.07;;;-3.50;99.90;;;;;;5029790;28;20448;-75
2021/01/11 08:15:54;;;;;;;15.80;12.73;;;-3.50;99.90;;;;;;5028690;28;20730;-74
2021/01/11 08:18:21;;;;;;;19.27;14.40;;;-3.50;99.90;;;;;;5028520;28;20226;-76
2021/01/11 08:20:47;;;;;;;19.90;14.80;;;-3.40;99.90;;;;;;5029027;28;20438;-75
2021/01/11 08:23:12;;;;;;;22.73;13.93;;;-3.40;99.90;;;;;;5029294;28;20536;-75
2021/01/11 08:25:39;;;;;;;28.40;17.80;;;-3.40;99.90;;;;;;5027551;28;20689;-75
2021/01/11 08:28:05;;;;;;;23.77;15.00;;;-3.40;99.90;;;;;;5029159;28;20211;-75
2021/01/11 08:30:31;;;;;;;21.37;14.33;;;-3.40;99.90;;;;;;5029955;28;20498;-74
2021/01/11 08:32:59;;;;;;;18.20;14.63;;;-3.30;99.90;;;;;;5012204;28;20962;-75
2021/01/11 08:35:24;;;;;;;24.93;15.97;;;-3.30;99.90;;;;;;5029630;28;20248;-75
2021/01/11 08:37:58;;;;;;;18.07;14.80;;;-3.30;99.90;;;;;;5028387;28;20837;-75
2021/01/11 08:40:30;;;;;;;20.10;14.50;;;-3.30;99.90;;;;;;5022106;28;20268;-74
2021/01/11 08:43:12;;;;;;;21.17;14.37;;;-3.20;99.90;;;;;;5029012;28;20425;-73
2021/01/11 08:45:40;;;;;;;21.37;13.33;;;-3.20;99.90;;;;;;5029790;28;20477;-74
2021/01/11 08:48:11;;;;;;;16.63;12.93;;;-3.20;99.90;;;;;;5027050;28;20667;-75
2021/01/11 08:50:42;;;;;;;16.60;13.50;;;-3.20;99.90;;;;;;5028868;28;20453;-74
2021/01/11 08:53:38;;;;;;;16.53;12.40;;;-3.10;99.90;;;;;;5028912;28;21099;-75
2021/01/11 08:56:08;;;;;;;18.00;13.77;;;-3.20;99.90;;;;;;4958124;28;21003;-76
2021/01/11 08:58:54;;;;;;;18.20;14.53;;;-3.00;99.90;;;;;;4949408;28;20444;-76
2021/01/11 09:01:25;;;;;;;20.30;14.03;;;-2.90;99.90;;;;;;4951101;28;20440;-75
2021/01/11 09:03:56;;;;;;;20.60;14.43;;;-2.90;99.90;;;;;;4956503;28;20431;-74
2021/01/11 09:06:43;;;;;;;21.07;15.07;;;-2.80;99.90;;;;;;4958910;28;20553;-75
2021/01/11 09:09:09;;;;;;;20.80;15.97;;;-2.80;99.90;;;;;;4960984;28;21094;-76
2021/01/11 09:11:36;;;;;;;19.50;14.67;;;-2.80;99.90;;;;;;4956959;28;20441;-75
2021/01/11 09:14:15;;;;;;;19.53;15.10;;;-2.70;99.90;;;;;;4955668;28;20940;-76
2021/01/11 09:16:42;;;;;;;23.83;16.37;;;-2.70;99.90;;;;;;4963911;28;20437;-74
2021/01/11 09:19:16;;;;;;;20.53;15.27;;;-2.50;99.90;;;;;;4957948;28;20496;-75
2021/01/11 09:21:43;;;;;;;20.50;15.40;;;-2.40;99.90;;;;;;4964364;28;20451;-75
2021/01/11 09:24:12;;;;;;;23.83;15.80;;;-2.40;99.90;;;;;;4961856;28;20535;-75
2021/01/11 09:26:41;;;;;;;20.77;15.37;;;-2.30;99.90;;;;;;4965259;28;20908;-76
2021/01/11 09:29:08;;;;;;;21.67;15.30;;;-2.30;99.90;;;;;;4963766;28;21014;-75
2021/01/11 09:31:34;;;;;;;19.33;14.47;;;-2.20;99.90;;;;;;4968453;28;20539;-75
2021/01/11 09:33:59;;;;;;;19.50;15.40;;;-2.10;99.90;;;;;;5029350;28;20455;-75
2021/01/11 09:36:32;;;;;;;23.80;15.30;;;-2.10;99.90;;;;;;5029514;28;20195;-75
2021/01/11 09:38:58;;;;;;;24.90;14.17;;;-2.00;99.90;;;;;;5027786;28;20297;-75
2021/01/11 09:41:23;;;;;;;19.80;15.10;;;-1.90;99.90;;;;;;5028500;28;20529;-74
2021/01/11 09:43:49;;;;;;;21.13;14.60;;;-1.90;99.90;;;;;;5028847;28;20241;-75
2021/01/11 09:46:15;;;;;;;20.13;15.67;;;-1.80;99.90;;;;;;5014198;28;20190;-74
2021/01/11 09:48:40;;;;;;;31.47;22.70;;;-1.70;99.90;;;;;;5028205;28;20577;-75
2021/01/11 09:51:06;;;;;;;29.83;18.13;;;-1.70;99.90;;;;;;5027796;28;20187;-74
2021/01/11 09:53:31;;;;;;;23.60;16.60;;;-1.60;99.90;;;;;;5027709;28;20267;-76
2021/01/11 09:55:57;;;;;;;24.50;16.97;;;-1.60;99.90;;;;;;5030555;28;20218;-77
2021/01/11 09:58:23;;;;;;;24.23;18.30;;;-1.50;99.90;;;;;;5027744;28;20372;-75
2021/01/11 10:00:48;;;;;;;23.63;18.10;;;-1.40;99.90;;;;;;5028097;28;20195;-74
2021/01/11 10:03:14;;;;;;;21.37;16.37;;;-1.40;99.90;;;;;;5027729;28;20452;-74
2021/01/11 10:05:39;;;;;;;26.10;17.47;;;-1.40;99.90;;;;;;5028495;28;20694;-76
2021/01/11 10:08:05;;;;;;;23.00;19.57;;;-1.40;99.90;;;;;;5028043;28;20213;-74
2021/01/11 10:10:31;;;;;;;21.43;16.93;;;-1.40;99.90;;;;;;5026633;28;20175;-75
2021/01/11 10:12:56;;;;;;;20.03;15.30;;;-1.30;99.90;;;;;;5026820;28;20254;-77
2021/01/11 10:15:22;;;;;;;35.10;23.20;;;-1.30;99.90;;;;;;5027161;28;20191;-74
2021/01/11 10:17:48;;;;;;;24.50;17.10;;;-1.30;99.90;;;;;;5027592;28;20195;-75
2021/01/11 10:20:14;;;;;;;20.80;16.20;;;-1.20;99.90;;;;;;5027147;28;20202;-76
2021/01/11 10:22:40;;;;;;;32.17;18.33;;;-1.10;99.90;;;;;;5026960;28;20211;-76
2021/01/11 10:25:07;;;;;;;27.93;20.40;;;-1.00;99.90;;;;;;5026645;28;21045;-76
2021/01/11 10:27:33;;;;;;;20.87;16.43;;;-0.90;99.90;;;;;;5028917;28;20183;-75
2021/01/11 10:29:59;;;;;;;21.43;17.00;;;-0.90;99.90;;;;;;5029372;28;20454;-75
2021/01/11 10:32:25;;;;;;;21.37;15.53;;;-0.80;99.90;;;;;;5027113;28;20480;-74
2021/01/11 10:34:50;;;;;;;21.00;15.13;;;-0.70;99.90;;;;;;5026397;28;20206;-75
2021/01/11 10:37:16;;;;;;;20.60;14.50;;;-0.70;99.90;;;;;;5026275;28;20221;-76
2021/01/11 10:39:43;;;;;;;15.83;14.07;;;-0.70;99.90;;;;;;5026309;28;20254;-76
2021/01/11 10:42:09;;;;;;;21.97;16.00;;;-0.60;99.90;;;;;;5026396;28;20449;-74
2021/01/11 10:44:34;;;;;;;22.20;15.87;;;-0.50;99.90;;;;;;5026375;28;20470;-74
2021/01/11 10:47:01;;;;;;;18.73;15.00;;;-0.40;99.90;;;;;;5025879;28;20187;-72
2021/01/11 10:49:28;;;;;;;20.30;14.57;;;-0.20;99.90;;;;;;5025702;28;21030;-75
2021/01/11 10:51:55;;;;;;;17.93;14.30;;;-0.20;99.90;;;;;;5026669;28;20926;-75
2021/01/11 10:54:22;;;;;;;22.60;16.90;;;-0.10;99.90;;;;;;5026636;28;20792;-76
2021/01/11 10:56:50;;;;;;;18.83;13.90;;;-0.10;99.90;;;;;;5025801;28;20458;-76
2021/01/11 10:59:16;;;;;;;21.10;15.70;;;0.00;99.90;;;;;;5008322;28;20976;-75
2021/01/11 11:01:41;;;;;;;20.10;14.33;;;0.10;99.90;;;;;;5026383;28;20426;-74
2021/01/11 11:04:07;;;;;;;20.73;15.37;;;0.10;99.90;;;;;;5026409;28;20623;-76
2021/01/11 11:06:33;;;;;;;20.03;14.03;;;0.00;99.90;;;;;;5027285;28;20185;-74
2021/01/11 11:08:58;;;;;;;20.70;13.57;;;0.00;99.90;;;;;;5026374;28;20622;-74
2021/01/11 11:11:24;;;;;;;19.63;15.20;;;0.00;99.90;;;;;;5026373;28;20190;-74
2021/01/11 11:13:49;;;;;;;18.70;14.50;;;0.10;99.90;;;;;;5024695;28;20218;-74
2021/01/11 11:16:15;;;;;;;19.43;15.00;;;0.10;99.90;;;;;;5027706;28;20238;-75
2021/01/11 11:18:42;;;;;;;20.13;14.20;;;0.20;99.90;;;;;;5008112;28;20880;-74
2021/01/11 11:21:08;;;;;;;19.53;15.67;;;0.40;99.90;;;;;;5026269;28;20183;-77
2021/01/11 11:23:35;;;;;;;20.83;14.77;;;0.40;99.90;;;;;;5028442;28;20454;-75
2021/01/11 11:26:01;;;;;;;17.20;14.53;;;0.30;99.90;;;;;;5027655;28;20575;-75
2021/01/11 11:28:31;;;;;;;17.13;14.83;;;0.30;99.90;;;;;;5027174;28;21028;-75
2021/01/11 11:30:57;;;;;;;16.93;14.73;;;0.20;99.90;;;;;;5027993;28;20414;-76
2021/01/11 11:33:23;;;;;;;17.47;13.97;;;0.30;99.90;;;;;;5030296;28;20464;-75
2021/01/11 11:35:49;;;;;;;18.47;13.17;;;0.30;99.90;;;;;;5027054;28;20453;-76
2021/01/11 11:38:15;;;;;;;18.07;13.90;;;0.30;99.90;;;;;;5026942;28;20846;-75
2021/01/11 11:40:41;;;;;;;17.63;13.37;;;0.30;99.90;;;;;;5027449;28;20183;-76
2021/01/11 11:43:08;;;;;;;18.53;13.97;;;0.40;99.90;;;;;;5030902;28;20179;-75
2021/01/11 11:45:33;;;;;;;18.93;13.23;;;0.50;99.90;;;;;;5030501;28;20509;-75
2021/01/11 11:47:59;;;;;;;16.40;12.70;;;0.60;99.90;;;;;;5014033;28;20523;-75
2021/01/11 11:50:25;;;;;;;16.57;12.50;;;0.80;99.90;;;;;;5011143;28;20179;-75
2021/01/11 11:52:51;;;;;;;22.10;16.90;;;1.00;99.90;;;;;;5029331;28;20202;-76
2021/01/11 11:55:16;;;;;;;20.37;15.23;;;1.20;99.90;;;;;;5029959;28;20441;-74
2021/01/11 11:57:43;;;;;;;17.80;14.23;;;1.20;99.90;;;;;;5029000;28;20195;-76
2021/01/11 12:00:14;;;;;;;17.57;14.20;;;1.10;99.90;;;;;;5028578;28;20176;-74
2021/01/11 12:02:43;;;;;;;22.40;15.90;;;1.10;99.90;;;;;;5012294;28;20587;-75
2021/01/11 12:05:10;;;;;;;21.10;14.80;;;1.10;99.90;;;;;;5028564;28;20453;-74
2021/01/11 12:07:36;;;;;;;18.00;12.93;;;1.20;99.90;;;;;;5029032;28;20487;-75
2021/01/11 12:10:03;;;;;;;15.53;12.03;;;1.40;99.90;;;;;;5028803;28;20428;-75
2021/01/11 12:12:29;;;;;;;17.30;12.87;;;1.40;99.90;;;;;;5030019;28;20209;-73
2021/01/11 12:14:54;;;;;;;17.27;13.67;;;1.60;99.90;;;;;;5029214;28;20465;-74
2021/01/11 12:17:20;;;;;;;19.33;14.10;;;1.70;99.90;;;;;;5028283;28;20191;-75
2021/01/11 12:19:46;;;;;;;16.87;12.67;;;1.80;99.90;;;;;;5028867;28;20695;-75
2021/01/11 12:22:11;;;;;;;16.60;12.63;;;1.90;99.90;;;;;;5010954;28;20183;-76
2021/01/11 12:24:40;;;;;;;16.73;13.33;;;2.10;99.90;;;;;;5028868;28;20294;-76
2021/01/11 12:27:06;;;;;;;15.23;13.60;;;2.20;99.90;;;;;;5029096;28;20241;-76
2021/01/11 12:29:32;;;;;;;16.13;13.20;;;2.30;99.90;;;;;;5028921;28;20500;-77
2021/01/11 12:32:01;;;;;;;15.27;12.90;;;2.40;99.90;;;;;;5032549;28;20191;-77
2021/01/11 12:34:27;;;;;;;17.53;13.00;;;2.60;99.90;;;;;;5031061;28;20918;-76
2021/01/11 12:36:52;;;;;;;17.67;14.87;;;2.60;99.90;;;;;;5033456;28;20443;-76